Time;durP1;ratioP1;P1;durP2;ratioP2;P2;SDS_P1;SDS_P2;PMS_P1;PMS_P2;Temp;Humidity;BMP_temperature;BMP_pressure;BME280_temperature;BME280_humidity;BME280_pressure;Samples;Min_cycle;Max_cycle;Signal;HPM_P1;HPM_P2
2022/08/24 00:01:06;;;;;;;12.85;11.68;;;;;;;;;;5016273;28;20037;-75
2022/08/24 00:03:32;;;;;;;12.15;11.15;;;;;;;;;;5011207;28;20026;-75
2022/08/24 00:05:57;;;;;;;13.77;12.48;;;;;;;;;;5018924;28;20036;-76
2022/08/24 00:08:22;;;;;;;13.07;11.27;;;;;;;;;;4997097;28;20033;-74
2022/08/24 00:10:48;;;;;;;12.38;11.32;;;;;;;;;;5017016;28;20109;-76
2022/08/24 00:13:14;;;;;;;11.60;10.68;;;;;;;;;;5010940;28;20086;-74
2022/08/24 00:15:40;;;;;;;13.60;12.20;;;;;;;;;;5023693;28;23739;-75
2022/08/24 00:18:05;;;;;;;13.02;11.88;;;;;;;;;;5012698;28;20113;-76
2022/08/24 00:20:31;;;;;;;11.98;10.98;;;;;;;;;;5022026;28;20041;-75
2022/08/24 00:22:56;;;;;;;11.43;10.43;;;;;;;;;;5022508;28;20026;-75
2022/08/24 00:25:22;;;;;;;12.23;10.93;;;;;;;;;;5022414;28;20040;-78
2022/08/24 00:27:47;;;;;;;11.55;10.45;;;;;;;;;;5025374;28;20437;-76
2022/08/24 00:30:17;;;;;;;12.02;10.93;;;;;;;;;;5021717;28;20083;-75
2022/08/24 00:32:43;;;;;;;11.38;10.38;;;;;;;;;;5009206;28;20075;-77
2022/08/24 00:35:08;;;;;;;12.60;11.50;;;;;;;;;;5019212;28;20132;-75
2022/08/24 00:37:35;;;;;;;13.27;12.05;;;;;;;;;;5021398;28;20116;-76
2022/08/24 00:40:00;;;;;;;13.60;12.23;;;;;;;;;;5019819;28;20029;-75
2022/08/24 00:42:26;;;;;;;13.57;12.07;;;;;;;;;;5021444;28;20144;-75
2022/08/24 00:44:51;;;;;;;13.82;12.55;;;;;;;;;;5015751;28;20021;-76
2022/08/24 00:47:21;;;;;;;13.93;12.63;;;;;;;;;;5011753;28;20042;-76
2022/08/24 00:50:08;;;;;;;13.05;11.75;;;;;;;;;;5014136;28;20433;-76
2022/08/24 00:52:42;;;;;;;13.02;11.93;;;;;;;;;;5004604;28;20965;-76
2022/08/24 00:55:16;;;;;;;11.88;10.73;;;;;;;;;;5023127;28;20025;-77
2022/08/24 00:57:43;;;;;;;12.32;11.20;;;;;;;;;;5022174;28;20017;-78
2022/08/24 01:00:30;;;;;;;11.88;10.88;;;;;;;;;;5021820;28;20041;-78
2022/08/24 01:03:02;;;;;;;11.55;10.50;;;;;;;;;;5021803;28;20356;-77
2022/08/24 01:05:29;;;;;;;12.63;11.43;;;;;;;;;;5013476;28;20032;-78
2022/08/24 01:07:54;;;;;;;15.05;11.32;;;;;;;;;;5008133;28;20024;-78
2022/08/24 01:10:22;;;;;;;12.48;10.25;;;;;;;;;;5021575;28;20037;-78
2022/08/24 01:12:49;;;;;;;12.13;10.90;;;;;;;;;;5015509;28;20025;-78
2022/08/24 01:15:15;;;;;;;13.55;10.82;;;;;;;;;;5018512;28;20116;-76
2022/08/24 01:20:25;;;;;;;11.93;10.70;;;;;;;;;;5019244;28;20040;-78
2022/08/24 01:22:54;;;;;;;12.27;11.02;;;;;;;;;;5012722;28;20021;-76
2022/08/24 01:25:21;;;;;;;12.60;11.35;;;;;;;;;;5019360;28;20013;-76
2022/08/24 01:27:47;;;;;;;11.75;10.60;;;;;;;;;;5020320;28;20086;-78
2022/08/24 01:30:14;;;;;;;12.25;11.15;;;;;;;;;;5020892;28;20656;-75
2022/08/24 01:32:40;;;;;;;11.88;10.82;;;;;;;;;;5013256;28;20073;-77
2022/08/24 01:35:06;;;;;;;12.07;10.82;;;;;;;;;;5018354;28;20111;-76
2022/08/24 01:37:32;;;;;;;11.98;10.88;;;;;;;;;;5022409;28;20076;-76
2022/08/24 01:39:59;;;;;;;11.80;10.75;;;;;;;;;;5021663;28;20042;-78
2022/08/24 01:42:26;;;;;;;13.00;11.85;;;;;;;;;;5020036;28;20045;-77
2022/08/24 01:44:52;;;;;;;12.32;11.00;;;;;;;;;;5020759;28;20036;-77
2022/08/24 01:47:17;;;;;;;11.05;10.15;;;;;;;;;;4998206;28;20050;-77
2022/08/24 01:49:44;;;;;;;12.90;11.55;;;;;;;;;;5022486;28;20444;-76
2022/08/24 01:52:12;;;;;;;12.85;11.57;;;;;;;;;;5020886;28;20029;-76
2022/08/24 01:54:39;;;;;;;18.63;14.48;;;;;;;;;;5021309;28;20060;-77
2022/08/24 01:57:05;;;;;;;17.05;13.38;;;;;;;;;;5022778;28;20313;-76
2022/08/24 01:59:30;;;;;;;16.38;14.77;;;;;;;;;;5018809;28;21081;-75
2022/08/24 02:02:00;;;;;;;15.00;13.07;;;;;;;;;;5019391;28;20021;-76
2022/08/24 02:04:26;;;;;;;14.30;12.85;;;;;;;;;;5019894;28;20032;-75
2022/08/24 02:06:52;;;;;;;15.02;13.43;;;;;;;;;;5020271;28;20025;-76
2022/08/24 02:09:18;;;;;;;13.57;11.18;;;;;;;;;;5019412;28;20792;-76
2022/08/24 02:11:43;;;;;;;12.48;11.27;;;;;;;;;;5020237;28;20040;-76
2022/08/24 02:14:08;;;;;;;12.15;10.98;;;;;;;;;;5019378;28;20110;-77
2022/08/24 02:16:34;;;;;;;12.57;10.20;;;;;;;;;;5019366;28;20056;-76
2022/08/24 02:18:59;;;;;;;12.80;10.93;;;;;;;;;;5020846;28;20018;-78
2022/08/24 02:21:24;;;;;;;12.13;11.02;;;;;;;;;;5020564;28;20041;-77
2022/08/24 02:23:50;;;;;;;13.10;11.40;;;;;;;;;;5001865;28;20026;-75
2022/08/24 02:26:16;;;;;;;11.85;10.55;;;;;;;;;;5020752;28;20112;-77
2022/08/24 02:28:41;;;;;;;12.02;10.77;;;;;;;;;;5019210;28;20689;-76
2022/08/24 02:31:08;;;;;;;12.18;11.13;;;;;;;;;;5018495;28;20069;-75
2022/08/24 02:33:34;;;;;;;11.48;10.30;;;;;;;;;;5017885;28;20030;-76
2022/08/24 02:36:00;;;;;;;13.60;11.15;;;;;;;;;;5020217;28;20394;-75
2022/08/24 02:38:25;;;;;;;11.05;9.98;;;;;;;;;;5019003;28;20025;-75
2022/08/24 02:40:50;;;;;;;10.98;9.88;;;;;;;;;;5017067;28;20511;-77
2022/08/24 02:43:16;;;;;;;10.98;10.07;;;;;;;;;;5010363;28;20056;-74
2022/08/24 02:45:43;;;;;;;11.82;10.63;;;;;;;;;;5018600;28;20161;-75
2022/08/24 02:48:09;;;;;;;11.85;10.75;;;;;;;;;;5021097;28;20349;-77
2022/08/24 02:50:36;;;;;;;11.63;10.30;;;;;;;;;;5018069;28;20040;-74
2022/08/24 02:53:02;;;;;;;12.15;10.70;;;;;;;;;;5022194;28;20029;-75
2022/08/24 02:55:27;;;;;;;12.27;10.98;;;;;;;;;;5020252;28;20059;-77
2022/08/24 02:57:52;;;;;;;11.75;10.63;;;;;;;;;;5009138;28;20024;-75
2022/08/24 03:00:20;;;;;;;12.43;11.32;;;;;;;;;;5018546;28;20038;-76
2022/08/24 03:02:45;;;;;;;11.43;10.43;;;;;;;;;;5012390;28;20036;-75
2022/08/24 03:05:11;;;;;;;11.30;10.20;;;;;;;;;;5017131;28;20018;-74
2022/08/24 03:07:36;;;;;;;11.10;10.10;;;;;;;;;;5009810;28;20330;-75
2022/08/24 03:10:03;;;;;;;11.98;10.98;;;;;;;;;;4999609;28;20361;-75
2022/08/24 03:12:29;;;;;;;11.23;10.23;;;;;;;;;;5021975;28;20329;-75
2022/08/24 03:14:54;;;;;;;12.07;10.88;;;;;;;;;;5025473;28;20079;-75
2022/08/24 03:17:19;;;;;;;11.77;10.68;;;;;;;;;;5022417;28;20414;-77
2022/08/24 03:19:45;;;;;;;11.57;10.57;;;;;;;;;;5024215;28;20067;-76
2022/08/24 03:22:11;;;;;;;12.07;10.95;;;;;;;;;;5014791;28;20141;-76
2022/08/24 03:24:37;;;;;;;11.73;10.70;;;;;;;;;;5017440;28;20080;-75
2022/08/24 03:27:03;;;;;;;11.55;10.45;;;;;;;;;;5022469;28;20053;-75
2022/08/24 03:29:29;;;;;;;11.93;10.93;;;;;;;;;;5023100;28;20420;-76
2022/08/24 03:31:56;;;;;;;11.95;10.93;;;;;;;;;;5022288;28;20108;-77
2022/08/24 03:34:21;;;;;;;12.32;11.13;;;;;;;;;;5018781;28;20026;-76
2022/08/24 03:36:46;;;;;;;12.55;10.77;;;;;;;;;;5017062;28;20616;-77
2022/08/24 03:39:13;;;;;;;12.05;10.85;;;;;;;;;;5019117;28;20437;-76
2022/08/24 03:41:38;;;;;;;11.52;10.32;;;;;;;;;;5014103;28;20059;-74
2022/08/24 03:44:04;;;;;;;11.52;10.45;;;;;;;;;;5023096;28;20168;-76
2022/08/24 03:46:35;;;;;;;12.18;11.07;;;;;;;;;;5013099;28;20032;-75
2022/08/24 03:49:01;;;;;;;11.88;10.80;;;;;;;;;;5022580;28;20032;-76
2022/08/24 03:51:27;;;;;;;13.52;11.07;;;;;;;;;;5022595;28;20033;-75
2022/08/24 03:53:52;;;;;;;12.65;11.45;;;;;;;;;;5022021;28;20129;-75
2022/08/24 03:56:18;;;;;;;12.10;10.90;;;;;;;;;;5018315;28;20100;-75
2022/08/24 03:58:44;;;;;;;12.43;11.27;;;;;;;;;;5010470;28;20110;-75
2022/08/24 04:01:10;;;;;;;11.57;10.52;;;;;;;;;;5011608;28;20124;-74
2022/08/24 04:03:36;;;;;;;12.20;11.18;;;;;;;;;;5009345;28;20025;-74
2022/08/24 04:06:01;;;;;;;12.10;11.02;;;;;;;;;;5007819;28;20458;-73
2022/08/24 04:08:27;;;;;;;11.90;10.80;;;;;;;;;;5009488;28;20104;-75
2022/08/24 04:10:53;;;;;;;12.65;11.65;;;;;;;;;;5009492;28;20033;-74
2022/08/24 04:13:19;;;;;;;12.70;11.55;;;;;;;;;;5010974;28;20096;-77
2022/08/24 04:15:45;;;;;;;12.27;11.18;;;;;;;;;;5009801;28;20112;-75
2022/08/24 04:18:10;;;;;;;12.35;11.23;;;;;;;;;;5008923;28;20375;-75
2022/08/24 04:20:40;;;;;;;14.25;12.63;;;;;;;;;;5011464;28;20040;-74
2022/08/24 04:23:06;;;;;;;12.98;11.77;;;;;;;;;;5015925;28;20037;-76
2022/08/24 04:25:37;;;;;;;14.90;12.98;;;;;;;;;;5021705;28;20025;-74
2022/08/24 04:28:02;;;;;;;13.63;12.35;;;;;;;;;;5020280;28;20060;-74
2022/08/24 04:30:28;;;;;;;13.57;12.15;;;;;;;;;;5013825;28;20057;-71
2022/08/24 04:32:53;;;;;;;13.73;12.23;;;;;;;;;;5019521;28;20025;-76
2022/08/24 04:35:19;;;;;;;13.73;12.57;;;;;;;;;;5021012;28;20024;-77
2022/08/24 04:37:44;;;;;;;12.77;11.63;;;;;;;;;;5014547;28;20478;-77
2022/08/24 04:40:10;;;;;;;12.98;11.70;;;;;;;;;;5013025;28;20040;-75
2022/08/24 04:42:36;;;;;;;12.23;11.18;;;;;;;;;;5017106;28;20057;-75
2022/08/24 04:45:01;;;;;;;12.23;11.02;;;;;;;;;;5020038;28;20087;-76
2022/08/24 04:47:27;;;;;;;12.48;11.30;;;;;;;;;;5019675;28;20116;-76
2022/08/24 04:49:52;;;;;;;12.57;11.52;;;;;;;;;;5020850;28;20037;-76
2022/08/24 04:52:17;;;;;;;12.23;11.23;;;;;;;;;;5020077;28;20057;-76
2022/08/24 04:54:43;;;;;;;12.75;11.55;;;;;;;;;;5017963;28;20108;-76
2022/08/24 04:57:08;;;;;;;13.48;12.18;;;;;;;;;;5018542;28;20038;-74
2022/08/24 04:59:33;;;;;;;12.90;11.65;;;;;;;;;;5020184;28;20037;-75
2022/08/24 05:01:59;;;;;;;14.48;13.10;;;;;;;;;;5021847;28;20428;-74
2022/08/24 05:04:24;;;;;;;12.77;11.68;;;;;;;;;;5019205;28;20475;-74
2022/08/24 05:06:49;;;;;;;13.02;11.85;;;;;;;;;;5020276;28;20029;-74
2022/08/24 05:09:15;;;;;;;12.75;11.55;;;;;;;;;;5020994;28;20458;-75
2022/08/24 05:11:40;;;;;;;14.68;11.77;;;;;;;;;;5012166;28;20025;-76
2022/08/24 05:14:06;;;;;;;12.85;11.27;;;;;;;;;;5019588;28;20356;-76
2022/08/24 05:16:33;;;;;;;15.25;12.07;;;;;;;;;;5020672;28;20033;-75
2022/08/24 05:18:59;;;;;;;14.98;11.05;;;;;;;;;;5021033;28;20061;-75
2022/08/24 05:21:24;;;;;;;12.60;11.10;;;;;;;;;;5020285;28;20072;-75
2022/08/24 05:23:50;;;;;;;12.95;11.50;;;;;;;;;;5019931;28;20108;-75
2022/08/24 05:26:15;;;;;;;12.20;10.98;;;;;;;;;;5020502;28;20025;-74
2022/08/24 05:28:41;;;;;;;13.43;11.63;;;;;;;;;;5019864;28;20021;-74
2022/08/24 05:31:08;;;;;;;12.40;11.10;;;;;;;;;;5019598;28;20028;-74
2022/08/24 05:33:33;;;;;;;12.48;11.15;;;;;;;;;;5020587;28;20116;-75
2022/08/24 05:35:59;;;;;;;11.98;10.77;;;;;;;;;;5018771;28;20116;-74
2022/08/24 05:38:24;;;;;;;12.25;10.93;;;;;;;;;;5019601;28;20025;-74
2022/08/24 05:40:50;;;;;;;13.30;10.60;;;;;;;;;;5019745;28;20065;-75
2022/08/24 05:43:15;;;;;;;11.23;10.15;;;;;;;;;;5021728;28;20056;-77
2022/08/24 05:45:41;;;;;;;9.90;9.00;;;;;;;;;;5019453;28;20124;-75
2022/08/24 05:48:06;;;;;;;10.38;9.48;;;;;;;;;;5020563;28;20083;-74
2022/08/24 05:50:32;;;;;;;9.45;8.55;;;;;;;;;;5019319;28;20025;-74
2022/08/24 05:52:57;;;;;;;9.52;8.63;;;;;;;;;;5020463;28;20083;-74
2022/08/24 05:55:22;;;;;;;9.82;8.88;;;;;;;;;;5020166;28;20029;-74
2022/08/24 05:57:49;;;;;;;8.30;7.50;;;;;;;;;;5018995;28;20445;-73
2022/08/24 06:00:14;;;;;;;9.38;8.48;;;;;;;;;;5019644;28;20400;-75
2022/08/24 06:02:40;;;;;;;9.75;8.82;;;;;;;;;;5012918;28;20022;-77
2022/08/24 06:05:05;;;;;;;9.85;8.90;;;;;;;;;;5011104;28;20033;-75
2022/08/24 06:07:30;;;;;;;9.85;8.95;;;;;;;;;;5019262;28;20115;-76
2022/08/24 06:09:56;;;;;;;9.18;8.27;;;;;;;;;;5020701;28;20321;-76
2022/08/24 06:12:22;;;;;;;11.55;9.57;;;;;;;;;;5020134;28;20334;-75
2022/08/24 06:14:47;;;;;;;9.80;8.80;;;;;;;;;;5020466;28;20106;-75
2022/08/24 06:17:13;;;;;;;9.07;8.27;;;;;;;;;;5007942;28;20416;-75
2022/08/24 06:19:38;;;;;;;9.77;8.90;;;;;;;;;;5007433;28;20463;-75
2022/08/24 06:22:03;;;;;;;9.68;8.88;;;;;;;;;;5007066;28;20021;-75
2022/08/24 06:27:20;;;;;;;9.82;8.82;;;;;;;;;;5006283;28;20040;-75
2022/08/24 06:29:46;;;;;;;9.60;8.60;;;;;;;;;;5008734;28;20037;-76
2022/08/24 06:32:11;;;;;;;10.15;8.70;;;;;;;;;;5007368;28;20929;-75
2022/08/24 06:34:38;;;;;;;9.32;8.50;;;;;;;;;;5006543;28;20025;-74
2022/08/24 06:37:04;;;;;;;9.27;8.10;;;;;;;;;;5011371;28;20116;-76
2022/08/24 06:39:29;;;;;;;9.07;8.27;;;;;;;;;;5002862;28;20076;-75
2022/08/24 06:41:54;;;;;;;9.10;8.30;;;;;;;;;;5020309;28;20108;-75
2022/08/24 06:44:19;;;;;;;9.77;8.88;;;;;;;;;;5019057;28;20035;-77
2022/08/24 06:46:45;;;;;;;9.70;8.70;;;;;;;;;;5020486;28;20032;-76
2022/08/24 06:49:11;;;;;;;9.10;8.20;;;;;;;;;;5023267;28;20026;-75
2022/08/24 06:51:36;;;;;;;8.73;7.93;;;;;;;;;;5024338;28;20040;-76
2022/08/24 06:54:01;;;;;;;9.05;8.25;;;;;;;;;;5023857;28;20142;-76
2022/08/24 06:56:27;;;;;;;9.50;8.18;;;;;;;;;;5023848;28;20040;-75
2022/08/24 06:58:52;;;;;;;9.05;8.25;;;;;;;;;;5022225;28;20441;-74
2022/08/24 07:01:19;;;;;;;9.38;8.35;;;;;;;;;;5022416;28;20036;-75
2022/08/24 07:03:45;;;;;;;8.32;7.63;;;;;;;;;;5022118;28;20041;-73
2022/08/24 07:06:11;;;;;;;8.88;8.13;;;;;;;;;;5022742;28;20725;-77
2022/08/24 07:08:37;;;;;;;9.23;8.43;;;;;;;;;;5024079;28;20349;-75
2022/08/24 07:11:02;;;;;;;8.57;7.88;;;;;;;;;;5022587;28;20134;-75
2022/08/24 07:13:29;;;;;;;9.10;8.30;;;;;;;;;;5023900;28;20045;-74
2022/08/24 07:15:55;;;;;;;8.00;7.35;;;;;;;;;;5023616;28;20029;-75
2022/08/24 07:18:20;;;;;;;11.38;7.28;;;;;;;;;;5022144;28;20357;-74
2022/08/24 07:20:46;;;;;;;9.30;7.07;;;;;;;;;;5022897;28;20025;-74
2022/08/24 07:23:13;;;;;;;8.27;7.20;;;;;;;;;;5020815;28;20573;-76
2022/08/24 07:25:39;;;;;;;7.20;6.70;;;;;;;;;;5021507;28;20140;-76
2022/08/24 07:28:05;;;;;;;7.32;6.72;;;;;;;;;;5023330;28;20025;-77
2022/08/24 07:30:30;;;;;;;7.18;6.53;;;;;;;;;;5022389;28;20033;-76
2022/08/24 07:32:57;;;;;;;7.40;6.63;;;;;;;;;;5022303;28;20067;-76
2022/08/24 07:35:23;;;;;;;6.30;5.70;;;;;;;;;;5022100;28;20151;-78
2022/08/24 07:37:49;;;;;;;8.00;6.03;;;;;;;;;;5022782;28;20053;-75
2022/08/24 07:40:14;;;;;;;6.97;6.28;;;;;;;;;;5023448;28;20357;-76
2022/08/24 07:42:40;;;;;;;6.55;5.65;;;;;;;;;;5005337;28;20079;-76
2022/08/24 07:45:05;;;;;;;6.05;5.28;;;;;;;;;;5018104;28;20105;-77
2022/08/24 07:47:31;;;;;;;6.05;5.60;;;;;;;;;;5010392;28;20475;-76
2022/08/24 07:49:56;;;;;;;6.75;5.20;;;;;;;;;;5012920;28;20049;-76
2022/08/24 07:52:22;;;;;;;5.70;5.10;;;;;;;;;;5010490;28;20361;-76
2022/08/24 07:54:48;;;;;;;5.20;4.80;;;;;;;;;;5011720;28;20330;-76
2022/08/24 07:57:14;;;;;;;7.03;5.30;;;;;;;;;;5021380;28;20025;-76
2022/08/24 07:59:39;;;;;;;9.27;6.88;;;;;;;;;;5013444;28;20434;-75
2022/08/24 08:02:04;;;;;;;8.95;7.35;;;;;;;;;;4999298;28;20060;-74
2022/08/24 08:04:30;;;;;;;8.07;6.03;;;;;;;;;;5019674;28;20034;-75
2022/08/24 08:06:56;;;;;;;6.35;5.75;;;;;;;;;;5016008;28;20017;-74
2022/08/24 08:09:21;;;;;;;33.25;29.73;;;;;;;;;;5011857;28;20365;-77
2022/08/24 08:11:48;;;;;;;132.30;96.88;;;;;;;;;;5010451;28;20033;-74
2022/08/24 08:14:13;;;;;;;194.00;102.75;;;;;;;;;;5021651;28;20060;-77
2022/08/24 08:16:39;;;;;;;79.60;50.50;;;;;;;;;;5021541;28;20049;-75
2022/08/24 08:19:04;;;;;;;71.60;46.28;;;;;;;;;;5021677;28;20061;-76
2022/08/24 08:24:14;;;;;;;40.67;31.80;;;;;;;;;;5020959;28;20040;-77
2022/08/24 08:26:40;;;;;;;23.73;21.23;;;;;;;;;;5016405;28;20029;-75
2022/08/24 08:29:05;;;;;;;11.88;10.68;;;;;;;;;;5011059;28;20040;-76
2022/08/24 08:31:30;;;;;;;8.00;7.20;;;;;;;;;;5010913;28;20507;-76
2022/08/24 08:33:56;;;;;;;8.80;7.90;;;;;;;;;;4992402;28;20021;-75
2022/08/24 08:36:21;;;;;;;32.78;25.23;;;;;;;;;;5019343;28;20110;-78
2022/08/24 08:38:47;;;;;;;30.83;25.60;;;;;;;;;;5010039;28;20342;-76
2022/08/24 08:41:18;;;;;;;53.72;44.53;;;;;;;;;;5009328;28;20075;-76
2022/08/24 08:43:56;;;;;;;34.22;29.63;;;;;;;;;;5010548;28;20052;-75
2022/08/24 08:46:39;;;;;;;29.30;26.40;;;;;;;;;;5009081;28;20128;-74
2022/08/24 08:49:11;;;;;;;13.18;11.85;;;;;;;;;;5012181;28;20037;-74
2022/08/24 08:51:40;;;;;;;7.93;7.25;;;;;;;;;;5008894;28;20033;-75
2022/08/24 08:54:05;;;;;;;50.80;41.47;;;;;;;;;;5011378;28;20037;-75
2022/08/24 08:56:33;;;;;;;60.03;44.75;;;;;;;;;;5008817;28;20262;-76
2022/08/24 08:59:06;;;;;;;30.10;24.85;;;;;;;;;;5011607;28;20044;-76
2022/08/24 09:01:51;;;;;;;25.23;22.88;;;;;;;;;;5021357;28;20029;-74
2022/08/24 09:04:24;;;;;;;7.25;6.55;;;;;;;;;;5020060;28;20025;-75
2022/08/24 09:07:01;;;;;;;12.02;9.88;;;;;;;;;;5020409;28;20091;-75
2022/08/24 09:09:45;;;;;;;11.13;9.93;;;;;;;;;;5021309;28;20022;-76
2022/08/24 09:12:16;;;;;;;14.93;13.30;;;;;;;;;;5019698;28;20057;-76
2022/08/24 09:14:51;;;;;;;75.60;68.00;;;;;;;;;;5020207;28;20036;-76
2022/08/24 09:17:16;;;;;;;68.53;61.10;;;;;;;;;;5020967;28;20025;-75
2022/08/24 09:19:57;;;;;;;36.17;32.55;;;;;;;;;;5021012;28;20024;-75
2022/08/24 09:22:22;;;;;;;12.65;11.48;;;;;;;;;;5021547;28;20041;-75
2022/08/24 09:24:53;;;;;;;6.95;6.25;;;;;;;;;;5011756;28;20029;-76
2022/08/24 09:27:24;;;;;;;5.88;5.38;;;;;;;;;;5008298;28;20025;-74
2022/08/24 09:30:01;;;;;;;5.80;5.30;;;;;;;;;;5019844;28;20037;-76
2022/08/24 09:32:27;;;;;;;6.82;6.13;;;;;;;;;;5021734;28;20025;-76
2022/08/24 09:34:58;;;;;;;81.47;67.10;;;;;;;;;;5021668;28;20032;-75
2022/08/24 09:37:23;;;;;;;193.20;164.90;;;;;;;;;;5019814;28;20040;-76
2022/08/24 09:39:49;;;;;;;41.25;32.65;;;;;;;;;;5017009;28;20022;-77
2022/08/24 09:42:14;;;;;;;16.10;13.77;;;;;;;;;;5013592;28;20405;-75
2022/08/24 09:44:43;;;;;;;39.67;30.58;;;;;;;;;;5020807;28;20425;-76
2022/08/24 09:47:11;;;;;;;29.52;26.50;;;;;;;;;;5021239;28;20044;-75
2022/08/24 09:49:46;;;;;;;9.60;8.80;;;;;;;;;;5020567;28;20506;-78
2022/08/24 09:52:47;;;;;;;21.98;19.77;;;;;;;;;;5020443;28;20136;-75
2022/08/24 09:55:31;;;;;;;23.52;20.83;;;;;;;;;;4989874;28;20032;-74
2022/08/24 09:57:57;;;;;;;42.55;31.80;;;;;;;;;;5021255;28;20029;-76
2022/08/24 10:00:33;;;;;;;18.95;11.23;;;;;;;;;;5021012;28;20487;-75
2022/08/24 10:03:26;;;;;;;7.25;5.75;;;;;;;;;;5017184;28;20021;-75
2022/08/24 10:05:54;;;;;;;8.23;7.55;;;;;;;;;;5007655;28;20056;-75
2022/08/24 10:08:38;;;;;;;11.52;10.43;;;;;;;;;;5016576;28;20013;-75
2022/08/24 10:11:04;;;;;;;7.60;7.00;;;;;;;;;;5010039;28;20057;-79
2022/08/24 10:13:29;;;;;;;6.75;5.55;;;;;;;;;;4991567;28;20060;-76
2022/08/24 10:16:02;;;;;;;8.32;7.00;;;;;;;;;;5010322;28;20025;-78
2022/08/24 10:18:40;;;;;;;5.82;5.32;;;;;;;;;;5011144;28;20025;-78
2022/08/24 10:21:16;;;;;;;6.72;5.15;;;;;;;;;;5009816;28;20455;-76
2022/08/24 10:24:04;;;;;;;5.90;5.40;;;;;;;;;;5012654;28;20399;-77
2022/08/24 10:26:46;;;;;;;6.68;6.18;;;;;;;;;;5012111;28;20037;-76
2022/08/24 10:29:21;;;;;;;6.18;5.68;;;;;;;;;;5011885;28;20041;-79
2022/08/24 10:31:47;;;;;;;6.45;5.95;;;;;;;;;;5012116;28;20033;-79
2022/08/24 10:34:21;;;;;;;34.13;25.70;;;;;;;;;;5010142;28;20045;-77
2022/08/24 10:37:03;;;;;;;10.35;9.43;;;;;;;;;;5013453;28;20449;-78
2022/08/24 10:39:42;;;;;;;9.90;7.40;;;;;;;;;;5011118;28;20491;-78
2022/08/24 10:45:26;;;;;;;7.97;7.28;;;;;;;;;;5013505;28;20518;-78
2022/08/24 10:48:03;;;;;;;7.93;7.13;;;;;;;;;;5011419;28;20026;-77
2022/08/24 10:50:54;;;;;;;10.15;9.13;;;;;;;;;;5010557;28;20039;-77
2022/08/24 10:53:30;;;;;;;7.45;6.85;;;;;;;;;;4997573;28;20041;-81
2022/08/24 10:56:09;;;;;;;14.88;13.35;;;;;;;;;;5010475;28;20036;-78
2022/08/24 10:58:43;;;;;;;7.35;6.75;;;;;;;;;;5013117;28;20086;-78
2022/08/24 11:01:20;;;;;;;17.58;15.73;;;;;;;;;;5015605;28;20037;-76
2022/08/24 11:03:50;;;;;;;68.22;42.00;;;;;;;;;;5014506;28;20057;-79
2022/08/24 11:06:17;;;;;;;83.45;63.90;;;;;;;;;;5023831;28;20463;-82
2022/08/24 11:09:04;;;;;;;88.10;76.95;;;;;;;;;;5006566;28;20036;-76
2022/08/24 11:11:31;;;;;;;13.02;11.73;;;;;;;;;;5014691;28;20025;-78
2022/08/24 11:14:00;;;;;;;8.45;7.65;;;;;;;;;;5009059;28;20022;-77
2022/08/24 11:16:30;;;;;;;7.90;7.10;;;;;;;;;;5008908;28;20037;-75
2022/08/24 11:18:57;;;;;;;7.57;6.63;;;;;;;;;;5009596;28;20130;-78
2022/08/24 11:21:33;;;;;;;8.15;7.38;;;;;;;;;;5014300;28;20087;-77
2022/08/24 11:24:23;;;;;;;9.60;7.00;;;;;;;;;;5015218;28;20021;-77
2022/08/24 11:27:03;;;;;;;7.10;6.50;;;;;;;;;;5020154;28;20044;-76
2022/08/24 11:29:49;;;;;;;7.05;6.45;;;;;;;;;;5024254;28;20029;-77
2022/08/24 11:32:40;;;;;;;6.63;6.07;;;;;;;;;;5015149;28;20036;-79
2022/08/24 11:35:18;;;;;;;6.85;6.15;;;;;;;;;;5009160;28;20038;-77
2022/08/24 11:37:44;;;;;;;9.07;6.28;;;;;;;;;;5022060;28;20037;-75
2022/08/24 11:40:09;;;;;;;7.60;6.80;;;;;;;;;;5022819;28;20060;-75
2022/08/24 11:42:44;;;;;;;7.55;6.35;;;;;;;;;;5022528;28;20042;-75
2022/08/24 11:45:25;;;;;;;6.80;6.10;;;;;;;;;;5021415;28;20033;-77
2022/08/24 11:48:13;;;;;;;9.23;6.82;;;;;;;;;;5023378;28;20108;-78
2022/08/24 11:50:40;;;;;;;7.90;7.10;;;;;;;;;;5020814;28;20444;-77
2022/08/24 11:53:20;;;;;;;7.70;7.03;;;;;;;;;;5022617;28;20025;-75
2022/08/24 11:55:54;;;;;;;7.35;6.75;;;;;;;;;;5023099;28;20441;-78
2022/08/24 11:58:38;;;;;;;7.80;7.20;;;;;;;;;;5023457;28;20403;-76
2022/08/24 12:01:07;;;;;;;12.30;8.30;;;;;;;;;;5023787;28;20034;-75
2022/08/24 12:03:35;;;;;;;8.38;7.57;;;;;;;;;;5012200;28;20041;-75
2022/08/24 12:06:19;;;;;;;9.45;8.65;;;;;;;;;;5009892;28;20037;-75
2022/08/24 12:08:49;;;;;;;8.95;8.27;;;;;;;;;;5008399;28;20052;-74
2022/08/24 12:11:22;;;;;;;9.55;8.52;;;;;;;;;;5019493;28;20416;-74
2022/08/24 12:14:10;;;;;;;9.18;8.38;;;;;;;;;;5022762;28;20464;-75
2022/08/24 12:16:56;;;;;;;9.05;8.32;;;;;;;;;;5015788;28;20037;-75
2022/08/24 12:19:32;;;;;;;8.40;7.80;;;;;;;;;;5022379;28;20062;-74
2022/08/24 12:22:00;;;;;;;9.43;7.68;;;;;;;;;;5022256;28;21456;-74
2022/08/24 12:24:37;;;;;;;8.38;7.78;;;;;;;;;;5005273;28;20395;-74
2022/08/24 12:27:12;;;;;;;7.95;7.18;;;;;;;;;;5021771;28;20025;-75
2022/08/24 12:29:41;;;;;;;7.05;6.35;;;;;;;;;;5022207;28;20029;-74
2022/08/24 12:32:12;;;;;;;8.90;8.20;;;;;;;;;;5021974;28;20425;-75
2022/08/24 12:34:41;;;;;;;9.43;7.40;;;;;;;;;;5020835;28;20079;-76
2022/08/24 12:37:27;;;;;;;8.18;7.47;;;;;;;;;;5004741;28;20502;-75
2022/08/24 12:40:07;;;;;;;8.32;7.53;;;;;;;;;;5020011;28;20045;-76
2022/08/24 12:42:44;;;;;;;9.55;8.75;;;;;;;;;;5023332;28;20061;-75
2022/08/24 12:45:11;;;;;;;10.10;8.30;;;;;;;;;;5021206;28;20029;-75
2022/08/24 12:47:53;;;;;;;9.15;8.23;;;;;;;;;;5019945;28;20080;-77
2022/08/24 12:50:24;;;;;;;8.52;7.70;;;;;;;;;;5021524;28;20360;-75
2022/08/24 12:52:59;;;;;;;9.07;8.18;;;;;;;;;;5021967;28;20039;-76
2022/08/24 12:55:24;;;;;;;11.13;8.68;;;;;;;;;;5020935;28;20120;-74
2022/08/24 12:57:56;;;;;;;8.85;7.88;;;;;;;;;;5021699;28;20120;-74
2022/08/24 13:00:32;;;;;;;8.65;7.78;;;;;;;;;;5020649;28;20441;-74
2022/08/24 13:03:00;;;;;;;8.43;7.63;;;;;;;;;;5021106;28;20368;-75
2022/08/24 13:05:37;;;;;;;8.50;7.82;;;;;;;;;;5021469;28;20036;-77
2022/08/24 13:08:10;;;;;;;11.10;7.40;;;;;;;;;;5023106;28;20096;-75
2022/08/24 13:10:42;;;;;;;10.77;8.38;;;;;;;;;;5021189;28;20039;-75
2022/08/24 13:13:10;;;;;;;8.20;7.40;;;;;;;;;;5021400;28;20067;-74
2022/08/24 13:15:36;;;;;;;8.02;7.22;;;;;;;;;;5020968;28;20456;-76
2022/08/24 13:18:07;;;;;;;9.45;7.63;;;;;;;;;;5022004;28;20029;-74
2022/08/24 13:20:42;;;;;;;9.15;6.97;;;;;;;;;;5020680;28;20043;-76
2022/08/24 13:23:10;;;;;;;8.50;7.38;;;;;;;;;;5021984;28;20053;-73
2022/08/24 13:25:56;;;;;;;8.73;7.07;;;;;;;;;;5021344;28;20437;-75
2022/08/24 13:28:21;;;;;;;8.32;7.28;;;;;;;;;;5021248;28;20467;-74
2022/08/24 13:31:06;;;;;;;7.22;6.63;;;;;;;;;;5020828;28;20112;-77
2022/08/24 13:33:40;;;;;;;8.05;7.13;;;;;;;;;;5018630;28;20035;-75
2022/08/24 13:36:27;;;;;;;8.25;7.45;;;;;;;;;;5019300;28;20025;-75
2022/08/24 13:39:12;;;;;;;8.32;7.38;;;;;;;;;;5022452;28;20049;-78
2022/08/24 13:41:43;;;;;;;8.57;7.78;;;;;;;;;;5020116;28;20354;-77
2022/08/24 13:44:22;;;;;;;8.50;7.75;;;;;;;;;;5020931;28;20022;-77
2022/08/24 13:47:06;;;;;;;9.48;7.53;;;;;;;;;;5010570;28;20078;-77
2022/08/24 13:49:51;;;;;;;8.45;7.63;;;;;;;;;;5022569;28;20645;-78
2022/08/24 13:52:28;;;;;;;9.30;7.63;;;;;;;;;;5020151;28;20021;-80
2022/08/24 13:55:19;;;;;;;8.45;7.65;;;;;;;;;;5007904;28;20028;-78
2022/08/24 13:57:50;;;;;;;8.35;7.22;;;;;;;;;;5019637;28;20415;-78
2022/08/24 14:00:16;;;;;;;6.75;6.15;;;;;;;;;;5014265;28;20040;-79
2022/08/24 14:02:48;;;;;;;9.20;7.13;;;;;;;;;;5012661;28;20104;-80
2022/08/24 14:05:17;;;;;;;7.18;6.38;;;;;;;;;;5022453;28;20033;-80
2022/08/24 14:07:42;;;;;;;;;;;;;;;;;;5016381;28;20021;-78
2022/08/24 14:10:10;;;;;;;7.15;6.47;;;;;;;;;;5011151;28;19905;-77
2022/08/24 14:12:37;;;;;;;7.90;7.10;;;;;;;;;;5021579;28;20067;-77
2022/08/24 14:15:22;;;;;;;10.80;7.25;;;;;;;;;;5012553;28;20258;-79
2022/08/24 14:18:07;;;;;;;7.75;7.05;;;;;;;;;;5003688;28;20046;-77
2022/08/24 14:20:42;;;;;;;9.57;8.48;;;;;;;;;;5008941;28;20071;-80
2022/08/24 14:23:10;;;;;;;10.48;9.10;;;;;;;;;;5009011;28;20023;-77
2022/08/24 14:25:35;;;;;;;10.37;8.73;;;;;;;;;;5010516;28;20026;-77
2022/08/24 14:28:03;;;;;;;8.88;7.93;;;;;;;;;;5020138;28;20301;-78
2022/08/24 14:30:29;;;;;;;10.20;9.23;;;;;;;;;;5013642;28;20025;-79
2022/08/24 14:32:57;;;;;;;9.38;8.50;;;;;;;;;;5012261;28;20017;-77
2022/08/24 14:35:38;;;;;;;9.18;8.32;;;;;;;;;;5017917;28;20429;-76
2022/08/24 14:38:03;;;;;;;8.43;7.60;;;;;;;;;;5008156;28;20025;-78
2022/08/24 14:40:35;;;;;;;9.25;7.45;;;;;;;;;;5022272;28;20029;-77
2022/08/24 14:43:00;;;;;;;8.55;7.78;;;;;;;;;;5020333;28;20053;-78
2022/08/24 14:45:38;;;;;;;8.32;7.63;;;;;;;;;;4998958;28;20453;-76
2022/08/24 14:48:24;;;;;;;8.48;7.75;;;;;;;;;;5008140;28;20017;-80
2022/08/24 14:50:49;;;;;;;10.45;7.25;;;;;;;;;;5018229;28;20064;-77
2022/08/24 14:53:21;;;;;;;9.18;8.27;;;;;;;;;;5023022;28;20429;-80